sensor_id;sensor_type;location;lat;lon;timestamp;pressure;altitude;pressure_sealevel;temperature;humidity
21153;BME280;10734;44.792;20.482;2022-09-09T00:07:48;99603.38;;;22.69;100.00
21153;BME280;10734;44.792;20.482;2022-09-09T00:15:11;99590.31;;;22.76;100.00
21153;BME280;10734;44.792;20.482;2022-09-09T00:22:32;99598.56;;;22.76;100.00
21153;BME280;10734;44.792;20.482;2022-09-09T00:25:02;99607.88;;;22.75;100.00
21153;BME280;10734;44.792;20.482;2022-09-09T00:27:46;99599.91;;;22.74;100.00
21153;BME280;10734;44.792;20.482;2022-09-09T00:30:19;99602.41;;;22.75;98.93
21153;BME280;10734;44.792;20.482;2022-09-09T00:32:52;99601.44;;;22.82;98.80
21153;BME280;10734;44.792;20.482;2022-09-09T00:37:50;99598.56;;;22.76;98.79
21153;BME280;10734;44.792;20.482;2022-09-09T00:42:54;99608.22;;;22.79;98.07
21153;BME280;10734;44.792;20.482;2022-09-09T00:47:57;99602.97;;;22.77;97.43
21153;BME280;10734;44.792;20.482;2022-09-09T00:58:25;99606.31;;;22.79;97.15
21153;BME280;10734;44.792;20.482;2022-09-09T01:00:57;99598.78;;;22.75;97.28
21153;BME280;10734;44.792;20.482;2022-09-09T01:11:01;99607.16;;;22.68;97.01
21153;BME280;10734;44.792;20.482;2022-09-09T01:13:29;99612.06;;;22.66;96.49
21153;BME280;10734;44.792;20.482;2022-09-09T01:16:00;99613.13;;;22.65;97.07
21153;BME280;10734;44.792;20.482;2022-09-09T01:18:29;99619.09;;;22.62;96.74
21153;BME280;10734;44.792;20.482;2022-09-09T01:23:54;99624.97;;;22.54;98.50
21153;BME280;10734;44.792;20.482;2022-09-09T01:26:29;99632.00;;;22.50;97.46
21153;BME280;10734;44.792;20.482;2022-09-09T01:28:56;99631.41;;;22.48;97.46
21153;BME280;10734;44.792;20.482;2022-09-09T01:31:26;99645.34;;;22.46;98.21
21153;BME280;10734;44.792;20.482;2022-09-09T01:33:54;99645.59;;;22.44;97.99
21153;BME280;10734;44.792;20.482;2022-09-09T01:36:42;99643.09;;;22.43;98.21
21153;BME280;10734;44.792;20.482;2022-09-09T01:39:07;99642.75;;;22.39;97.89
21153;BME280;10734;44.792;20.482;2022-09-09T01:41:34;99640.59;;;22.41;97.54
21153;BME280;10734;44.792;20.482;2022-09-09T01:44:00;99651.09;;;22.44;96.70
21153;BME280;10734;44.792;20.482;2022-09-09T01:46:27;99657.16;;;22.47;96.95
21153;BME280;10734;44.792;20.482;2022-09-09T01:48:55;99669.81;;;22.48;97.03
21153;BME280;10734;44.792;20.482;2022-09-09T01:51:22;99667.06;;;22.48;97.73
21153;BME280;10734;44.792;20.482;2022-09-09T01:53:49;99672.06;;;22.51;97.20
21153;BME280;10734;44.792;20.482;2022-09-09T02:01:43;99673.03;;;22.44;97.94
21153;BME280;10734;44.792;20.482;2022-09-09T02:06:48;99676.13;;;22.36;98.58
21153;BME280;10734;44.792;20.482;2022-09-09T02:09:17;99675.50;;;22.34;98.77
21153;BME280;10734;44.792;20.482;2022-09-09T02:11:45;99674.91;;;22.32;98.52
21153;BME280;10734;44.792;20.482;2022-09-09T02:14:15;99656.78;;;22.31;99.05
21153;BME280;10734;44.792;20.482;2022-09-09T02:16:44;99671.78;;;22.29;99.96
21153;BME280;10734;44.792;20.482;2022-09-09T02:21:43;99670.00;;;22.22;100.00
21153;BME280;10734;44.792;20.482;2022-09-09T02:24:11;99674.63;;;22.22;100.00
21153;BME280;10734;44.792;20.482;2022-09-09T02:26:41;99676.31;;;22.23;98.98
21153;BME280;10734;44.792;20.482;2022-09-09T02:29:11;99670.81;;;22.23;98.47
21153;BME280;10734;44.792;20.482;2022-09-09T02:31:39;99671.66;;;22.23;98.17
21153;BME280;10734;44.792;20.482;2022-09-09T02:34:25;99671.66;;;22.23;98.07
21153;BME280;10734;44.792;20.482;2022-09-09T02:36:53;99670.81;;;22.23;98.45
21153;BME280;10734;44.792;20.482;2022-09-09T02:39:23;99668.31;;;22.21;98.64
21153;BME280;10734;44.792;20.482;2022-09-09T02:41:49;99660.91;;;22.22;99.06
21153;BME280;10734;44.792;20.482;2022-09-09T02:44:16;99656.53;;;22.21;99.73
21153;BME280;10734;44.792;20.482;2022-09-09T02:46:48;99645.56;;;22.21;98.29
21153;BME280;10734;44.792;20.482;2022-09-09T02:52:13;99644.47;;;22.22;98.17
21153;BME280;10734;44.792;20.482;2022-09-09T02:54:42;99648.06;;;22.22;98.01
21153;BME280;10734;44.792;20.482;2022-09-09T02:57:14;99637.94;;;22.23;97.73
21153;BME280;10734;44.792;20.482;2022-09-09T02:59:42;99637.44;;;22.26;97.50
21153;BME280;10734;44.792;20.482;2022-09-09T03:02:09;99649.47;;;22.25;97.90
21153;BME280;10734;44.792;20.482;2022-09-09T03:04:37;99639.59;;;22.24;98.60
21153;BME280;10734;44.792;20.482;2022-09-09T03:07:04;99640.09;;;22.21;98.68
21153;BME280;10734;44.792;20.482;2022-09-09T03:09:31;99642.22;;;22.19;98.91
21153;BME280;10734;44.792;20.482;2022-09-09T03:12:01;99638.88;;;22.17;99.65
21153;BME280;10734;44.792;20.482;2022-09-09T03:14:28;99647.34;;;22.15;99.71
21153;BME280;10734;44.792;20.482;2022-09-09T03:16:54;99647.81;;;22.12;100.00
21153;BME280;10734;44.792;20.482;2022-09-09T03:19:22;99656.28;;;22.11;100.00
21153;BME280;10734;44.792;20.482;2022-09-09T03:21:49;99662.22;;;22.07;100.00
21153;BME280;10734;44.792;20.482;2022-09-09T03:24:15;99657.22;;;22.04;100.00
21153;BME280;10734;44.792;20.482;2022-09-09T03:26:42;99663.16;;;22.01;100.00
21153;BME280;10734;44.792;20.482;2022-09-09T03:29:13;99668.66;;;22.01;100.00
21153;BME280;10734;44.792;20.482;2022-09-09T03:31:40;99676.28;;;21.99;100.00
21153;BME280;10734;44.792;20.482;2022-09-09T03:34:07;99682.47;;;21.95;100.00
21153;BME280;10734;44.792;20.482;2022-09-09T03:36:34;99688.06;;;22.00;100.00
21153;BME280;10734;44.792;20.482;2022-09-09T03:39:00;99689.38;;;21.97;100.00
21153;BME280;10734;44.792;20.482;2022-09-09T03:41:29;99696.50;;;21.98;100.00
21153;BME280;10734;44.792;20.482;2022-09-09T03:43:56;99696.97;;;21.95;100.00
21153;BME280;10734;44.792;20.482;2022-09-09T03:46:23;99713.88;;;21.92;100.00
21153;BME280;10734;44.792;20.482;2022-09-09T03:48:50;99718.19;;;21.88;100.00
21153;BME280;10734;44.792;20.482;2022-09-09T03:51:18;99716.97;;;21.84;100.00
21153;BME280;10734;44.792;20.482;2022-09-09T03:53:45;99720.88;;;21.76;100.00
21153;BME280;10734;44.792;20.482;2022-09-09T03:56:11;99715.63;;;21.75;100.00
21153;BME280;10734;44.792;20.482;2022-09-09T03:58:38;99735.72;;;21.68;100.00
21153;BME280;10734;44.792;20.482;2022-09-09T04:01:08;99743.19;;;21.61;100.00
21153;BME280;10734;44.792;20.482;2022-09-09T04:03:41;99755.31;;;21.53;100.00
21153;BME280;10734;44.792;20.482;2022-09-09T04:06:09;99764.25;;;21.42;100.00
21153;BME280;10734;44.792;20.482;2022-09-09T04:08:37;99768.91;;;21.23;100.00
21153;BME280;10734;44.792;20.482;2022-09-09T04:11:04;99767.34;;;20.90;100.00
21153;BME280;10734;44.792;20.482;2022-09-09T04:13:33;99767.22;;;20.53;100.00
21153;BME280;10734;44.792;20.482;2022-09-09T04:16:00;99776.00;;;20.37;100.00
21153;BME280;10734;44.792;20.482;2022-09-09T04:18:27;99780.94;;;20.21;100.00
21153;BME280;10734;44.792;20.482;2022-09-09T04:20:57;99781.00;;;20.08;100.00
21153;BME280;10734;44.792;20.482;2022-09-09T04:23:24;99793.41;;;20.04;100.00
21153;BME280;10734;44.792;20.482;2022-09-09T04:25:51;99791.22;;;19.87;100.00
21153;BME280;10734;44.792;20.482;2022-09-09T04:28:19;99790.41;;;19.80;100.00
21153;BME280;10734;44.792;20.482;2022-09-09T04:30:46;99795.66;;;19.75;100.00
21153;BME280;10734;44.792;20.482;2022-09-09T04:33:12;99794.63;;;19.69;100.00
21153;BME280;10734;44.792;20.482;2022-09-09T04:35:39;99794.22;;;19.66;100.00
21153;BME280;10734;44.792;20.482;2022-09-09T04:38:10;99787.50;;;19.62;100.00
21153;BME280;10734;44.792;20.482;2022-09-09T04:40:36;99772.00;;;19.55;100.00
21153;BME280;10734;44.792;20.482;2022-09-09T04:43:03;99770.34;;;19.54;100.00
21153;BME280;10734;44.792;20.482;2022-09-09T04:45:34;99771.56;;;19.58;100.00
21153;BME280;10734;44.792;20.482;2022-09-09T04:48:01;99781.47;;;19.53;100.00
21153;BME280;10734;44.792;20.482;2022-09-09T04:50:28;99778.13;;;19.44;100.00
21153;BME280;10734;44.792;20.482;2022-09-09T04:52:55;99773.31;;;19.46;100.00
21153;BME280;10734;44.792;20.482;2022-09-09T04:55:21;99767.03;;;19.39;100.00
21153;BME280;10734;44.792;20.482;2022-09-09T04:57:48;99771.44;;;19.40;100.00
21153;BME280;10734;44.792;20.482;2022-09-09T05:00:14;99763.28;;;19.40;100.00
21153;BME280;10734;44.792;20.482;2022-09-09T05:02:41;99756.94;;;19.46;100.00
21153;BME280;10734;44.792;20.482;2022-09-09T05:05:09;99760.91;;;19.50;100.00
21153;BME280;10734;44.792;20.482;2022-09-09T05:07:37;99761.06;;;19.55;100.00
21153;BME280;10734;44.792;20.482;2022-09-09T05:10:04;99761.06;;;19.55;100.00
21153;BME280;10734;44.792;20.482;2022-09-09T05:12:31;99755.63;;;19.55;100.00
21153;BME280;10734;44.792;20.482;2022-09-09T05:14:58;99761.91;;;19.63;100.00
21153;BME280;10734;44.792;20.482;2022-09-09T05:17:24;99764.44;;;19.57;100.00
21153;BME280;10734;44.792;20.482;2022-09-09T05:19:51;99777.03;;;19.58;100.00
21153;BME280;10734;44.792;20.482;2022-09-09T05:22:20;99782.28;;;19.60;100.00
21153;BME280;10734;44.792;20.482;2022-09-09T05:24:48;99783.13;;;19.61;100.00
21153;BME280;10734;44.792;20.482;2022-09-09T05:27:17;99790.88;;;19.64;100.00
21153;BME280;10734;44.792;20.482;2022-09-09T05:29:45;99789.19;;;19.63;100.00
21153;BME280;10734;44.792;20.482;2022-09-09T05:32:12;99790.03;;;19.70;100.00
21153;BME280;10734;44.792;20.482;2022-09-09T05:34:41;99790.84;;;19.77;100.00
21153;BME280;10734;44.792;20.482;2022-09-09T05:37:07;99785.75;;;19.87;100.00
21153;BME280;10734;44.792;20.482;2022-09-09T05:39:34;99776.69;;;19.93;100.00
21153;BME280;10734;44.792;20.482;2022-09-09T05:42:03;99774.34;;;19.97;100.00
21153;BME280;10734;44.792;20.482;2022-09-09T05:44:30;99772.25;;;19.99;100.00
21153;BME280;10734;44.792;20.482;2022-09-09T05:46:57;99771.34;;;20.05;100.00
21153;BME280;10734;44.792;20.482;2022-09-09T05:49:24;99756.16;;;20.16;100.00
21153;BME280;10734;44.792;20.482;2022-09-09T05:51:51;99753.59;;;20.21;100.00
21153;BME280;10734;44.792;20.482;2022-09-09T05:54:17;99753.78;;;20.26;100.00
21153;BME280;10734;44.792;20.482;2022-09-09T05:56:44;99751.03;;;20.26;100.00
21153;BME280;10734;44.792;20.482;2022-09-09T05:59:16;99753.50;;;20.35;100.00
21153;BME280;10734;44.792;20.482;2022-09-09T06:01:43;99743.88;;;20.32;100.00
21153;BME280;10734;44.792;20.482;2022-09-09T06:04:10;99742.13;;;20.38;100.00
21153;BME280;10734;44.792;20.482;2022-09-09T06:06:37;99733.31;;;20.36;100.00
21153;BME280;10734;44.792;20.482;2022-09-09T06:09:06;99725.63;;;20.51;100.00
21153;BME280;10734;44.792;20.482;2022-09-09T06:11:36;99722.38;;;20.61;100.00
21153;BME280;10734;44.792;20.482;2022-09-09T06:14:03;99728.94;;;20.78;100.00
21153;BME280;10734;44.792;20.482;2022-09-09T06:16:30;99726.31;;;20.90;100.00
21153;BME280;10734;44.792;20.482;2022-09-09T06:18:59;99719.00;;;20.84;100.00
21153;BME280;10734;44.792;20.482;2022-09-09T06:21:35;99716.75;;;20.99;100.00
21153;BME280;10734;44.792;20.482;2022-09-09T06:24:03;99723.66;;;21.21;100.00
21153;BME280;10734;44.792;20.482;2022-09-09T06:26:31;99723.19;;;21.24;100.00
21153;BME280;10734;44.792;20.482;2022-09-09T06:28:58;99714.00;;;21.36;100.00
21153;BME280;10734;44.792;20.482;2022-09-09T06:31:26;99712.47;;;21.41;100.00
21153;BME280;10734;44.792;20.482;2022-09-09T06:33:57;99713.16;;;21.54;100.00
21153;BME280;10734;44.792;20.482;2022-09-09T06:36:25;99704.53;;;21.69;100.00
21153;BME280;10734;44.792;20.482;2022-09-09T06:38:52;99714.28;;;21.65;100.00
21153;BME280;10734;44.792;20.482;2022-09-09T06:41:19;99712.88;;;21.75;100.00
21153;BME280;10734;44.792;20.482;2022-09-09T06:43:46;99714.56;;;21.76;100.00
21153;BME280;10734;44.792;20.482;2022-09-09T06:46:17;99727.56;;;21.80;100.00
21153;BME280;10734;44.792;20.482;2022-09-09T06:48:45;99744.47;;;21.77;100.00
21153;BME280;10734;44.792;20.482;2022-09-09T06:51:13;99756.41;;;21.64;100.00
21153;BME280;10734;44.792;20.482;2022-09-09T06:53:40;99775.19;;;21.49;100.00
21153;BME280;10734;44.792;20.482;2022-09-09T06:58:43;99786.00;;;21.37;100.00
21153;BME280;10734;44.792;20.482;2022-09-09T07:01:13;99794.44;;;21.17;100.00
21153;BME280;10734;44.792;20.482;2022-09-09T07:03:40;99800.25;;;21.27;100.00
21153;BME280;10734;44.792;20.482;2022-09-09T07:06:13;99803.25;;;21.19;100.00
21153;BME280;10734;44.792;20.482;2022-09-09T07:08:41;99817.09;;;21.06;100.00
21153;BME280;10734;44.792;20.482;2022-09-09T07:11:07;99812.13;;;20.96;100.00
21153;BME280;10734;44.792;20.482;2022-09-09T07:13:37;99814.47;;;20.92;100.00
21153;BME280;10734;44.792;20.482;2022-09-09T07:16:08;99820.69;;;20.81;100.00
21153;BME280;10734;44.792;20.482;2022-09-09T07:18:35;99821.72;;;20.80;100.00
21153;BME280;10734;44.792;20.482;2022-09-09T07:21:02;99811.22;;;20.77;100.00
21153;BME280;10734;44.792;20.482;2022-09-09T07:23:29;99820.06;;;20.79;100.00
21153;BME280;10734;44.792;20.482;2022-09-09T07:26:01;99803.66;;;20.79;100.00
21153;BME280;10734;44.792;20.482;2022-09-09T07:28:29;99815.88;;;20.76;100.00
21153;BME280;10734;44.792;20.482;2022-09-09T07:30:58;99813.44;;;20.61;100.00
21153;BME280;10734;44.792;20.482;2022-09-09T07:33:25;99818.91;;;20.61;100.00
21153;BME280;10734;44.792;20.482;2022-09-09T07:35:52;99827.31;;;20.67;100.00
21153;BME280;10734;44.792;20.482;2022-09-09T07:38:19;99828.19;;;20.60;100.00
21153;BME280;10734;44.792;20.482;2022-09-09T07:40:47;99832.56;;;20.61;100.00
21153;BME280;10734;44.792;20.482;2022-09-09T07:43:13;99830.28;;;20.65;100.00
21153;BME280;10734;44.792;20.482;2022-09-09T07:45:42;99835.31;;;20.61;100.00
21153;BME280;10734;44.792;20.482;2022-09-09T07:48:09;99837.00;;;20.62;100.00
21153;BME280;10734;44.792;20.482;2022-09-09T07:50:35;99838.66;;;20.63;100.00
21153;BME280;10734;44.792;20.482;2022-09-09T07:53:02;99846.03;;;20.70;100.00
21153;BME280;10734;44.792;20.482;2022-09-09T07:55:31;99847.88;;;20.76;100.00
21153;BME280;10734;44.792;20.482;2022-09-09T07:57:57;99843.66;;;20.73;100.00
21153;BME280;10734;44.792;20.482;2022-09-09T08:00:24;99848.31;;;20.73;100.00
21153;BME280;10734;44.792;20.482;2022-09-09T08:02:51;99859.56;;;20.83;100.00
21153;BME280;10734;44.792;20.482;2022-09-09T08:05:20;99856.59;;;20.91;100.00
21153;BME280;10734;44.792;20.482;2022-09-09T08:07:48;99861.59;;;20.94;100.00
21153;BME280;10734;44.792;20.482;2022-09-09T08:10:15;99867.47;;;20.98;100.00
21153;BME280;10734;44.792;20.482;2022-09-09T08:12:42;99868.72;;;20.95;100.00
21153;BME280;10734;44.792;20.482;2022-09-09T08:15:28;99862.38;;;21.01;100.00
21153;BME280;10734;44.792;20.482;2022-09-09T08:17:56;99861.03;;;21.11;100.00
21153;BME280;10734;44.792;20.482;2022-09-09T08:20:23;99852.50;;;21.19;100.00
21153;BME280;10734;44.792;20.482;2022-09-09T08:22:49;99839.47;;;21.21;100.00
21153;BME280;10734;44.792;20.482;2022-09-09T08:25:16;99841.78;;;21.43;100.00
21153;BME280;10734;44.792;20.482;2022-09-09T08:27:43;99846.28;;;21.56;100.00
21153;BME280;10734;44.792;20.482;2022-09-09T08:30:09;99850.31;;;21.71;100.00
21153;BME280;10734;44.792;20.482;2022-09-09T08:32:39;99844.97;;;21.77;100.00
21153;BME280;10734;44.792;20.482;2022-09-09T08:35:11;99841.03;;;21.72;100.00
21153;BME280;10734;44.792;20.482;2022-09-09T08:37:37;99835.78;;;21.89;100.00
21153;BME280;10734;44.792;20.482;2022-09-09T08:40:04;99822.03;;;22.08;100.00
21153;BME280;10734;44.792;20.482;2022-09-09T08:42:49;99823.88;;;22.26;100.00
21153;BME280;10734;44.792;20.482;2022-09-09T08:57:43;99817.97;;;23.95;100.00
21153;BME280;10734;44.792;20.482;2022-09-09T09:00:12;99817.19;;;24.11;100.00
21153;BME280;10734;44.792;20.482;2022-09-09T09:05:31;99821.94;;;25.69;100.00
21153;BME280;10734;44.792;20.482;2022-09-09T09:10:32;99813.88;;;26.33;100.00
21153;BME280;10734;44.792;20.482;2022-09-09T09:13:18;99810.59;;;27.06;100.00
21153;BME280;10734;44.792;20.482;2022-09-09T09:15:49;99806.31;;;27.26;100.00
21153;BME280;10734;44.792;20.482;2022-09-09T09:18:18;99809.44;;;27.98;100.00
21153;BME280;10734;44.792;20.482;2022-09-09T09:20:48;99818.66;;;27.56;100.00
21153;BME280;10734;44.792;20.482;2022-09-09T09:23:18;99816.47;;;26.18;100.00
21153;BME280;10734;44.792;20.482;2022-09-09T09:25:47;99820.41;;;26.82;100.00
21153;BME280;10734;44.792;20.482;2022-09-09T09:28:17;99827.34;;;27.27;100.00
21153;BME280;10734;44.792;20.482;2022-09-09T09:35:52;99823.66;;;27.59;99.07
21153;BME280;10734;44.792;20.482;2022-09-09T09:38:21;99812.81;;;28.10;97.13
21153;BME280;10734;44.792;20.482;2022-09-09T09:41:08;99810.41;;;28.81;94.03
21153;BME280;10734;44.792;20.482;2022-09-09T09:43:36;99809.53;;;28.49;91.71
21153;BME280;10734;44.792;20.482;2022-09-09T09:46:03;99808.28;;;27.94;92.28
21153;BME280;10734;44.792;20.482;2022-09-09T09:48:43;99802.31;;;28.48;91.66
21153;BME280;10734;44.792;20.482;2022-09-09T09:51:12;99801.78;;;28.51;90.82
21153;BME280;10734;44.792;20.482;2022-09-09T09:53:42;99805.69;;;28.50;93.62
21153;BME280;10734;44.792;20.482;2022-09-09T09:56:09;99805.50;;;27.78;92.89
21153;BME280;10734;44.792;20.482;2022-09-09T10:01:22;99798.44;;;29.21;88.65
21153;BME280;10734;44.792;20.482;2022-09-09T10:03:55;99795.63;;;29.37;87.29
21153;BME280;10734;44.792;20.482;2022-09-09T10:06:31;99791.19;;;29.41;84.51
21153;BME280;10734;44.792;20.482;2022-09-09T10:08:57;99788.97;;;29.43;84.29
21153;BME280;10734;44.792;20.482;2022-09-09T10:11:30;99789.72;;;29.64;84.46
21153;BME280;10734;44.792;20.482;2022-09-09T10:19:40;99782.72;;;30.27;79.81
21153;BME280;10734;44.792;20.482;2022-09-09T10:25:03;99779.16;;;31.19;74.97
21153;BME280;10734;44.792;20.482;2022-09-09T10:31:03;99782.25;;;30.59;76.78
21153;BME280;10734;44.792;20.482;2022-09-09T10:33:25;99773.66;;;30.85;76.92
21153;BME280;10734;44.792;20.482;2022-09-09T10:38:47;99772.03;;;31.38;73.20
21153;BME280;10734;44.792;20.482;2022-09-09T10:46:41;99751.72;;;31.37;75.39
21153;BME280;10734;44.792;20.482;2022-09-09T10:49:28;99751.31;;;31.92;71.50
21153;BME280;10734;44.792;20.482;2022-09-09T10:52:15;99749.91;;;32.47;70.64
21153;BME280;10734;44.792;20.482;2022-09-09T10:57:50;99747.16;;;32.79;67.54
21153;BME280;10734;44.792;20.482;2022-09-09T11:00:19;99749.81;;;32.19;67.50
21153;BME280;10734;44.792;20.482;2022-09-09T11:03:04;99749.44;;;32.58;67.29
21153;BME280;10734;44.792;20.482;2022-09-09T11:05:42;99747.88;;;32.52;67.03
21153;BME280;10734;44.792;20.482;2022-09-09T11:08:12;99747.31;;;32.69;66.74
21153;BME280;10734;44.792;20.482;2022-09-09T11:13:11;99743.13;;;32.53;68.19
21153;BME280;10734;44.792;20.482;2022-09-09T11:15:43;99740.38;;;31.77;67.30
21153;BME280;10734;44.792;20.482;2022-09-09T11:18:13;99744.09;;;30.94;71.26
21153;BME280;10734;44.792;20.482;2022-09-09T11:20:42;99738.47;;;31.05;72.07
21153;BME280;10734;44.792;20.482;2022-09-09T11:23:14;99729.59;;;31.51;71.27
21153;BME280;10734;44.792;20.482;2022-09-09T11:25:44;99722.25;;;32.69;69.46
21153;BME280;10734;44.792;20.482;2022-09-09T11:30:58;99724.25;;;33.66;65.43
21153;BME280;10734;44.792;20.482;2022-09-09T11:38:51;99721.38;;;33.71;60.83
21153;BME280;10734;44.792;20.482;2022-09-09T11:41:20;99723.38;;;33.93;58.79
21153;BME280;10734;44.792;20.482;2022-09-09T11:43:48;99713.00;;;33.57;59.05
21153;BME280;10734;44.792;20.482;2022-09-09T11:46:18;99712.69;;;33.59;58.24
21153;BME280;10734;44.792;20.482;2022-09-09T11:48:46;99707.75;;;33.28;60.66
21153;BME280;10734;44.792;20.482;2022-09-09T11:53:54;99691.94;;;33.09;60.25
21153;BME280;10734;44.792;20.482;2022-09-09T11:58:54;99686.00;;;32.69;63.19
21153;BME280;10734;44.792;20.482;2022-09-09T12:04:33;99682.63;;;32.39;60.64
21153;BME280;10734;44.792;20.482;2022-09-09T12:09:45;99676.63;;;32.65;59.59
21153;BME280;10734;44.792;20.482;2022-09-09T12:17:20;99674.19;;;33.83;56.13
21153;BME280;10734;44.792;20.482;2022-09-09T12:19:59;99666.81;;;33.88;54.69
21153;BME280;10734;44.792;20.482;2022-09-09T12:27:44;99649.50;;;32.05;55.47
21153;BME280;10734;44.792;20.482;2022-09-09T12:30:14;99660.28;;;31.74;57.84
21153;BME280;10734;44.792;20.482;2022-09-09T12:32:41;99646.38;;;33.00;54.82
21153;BME280;10734;44.792;20.482;2022-09-09T12:37:37;99650.31;;;33.27;52.62
21153;BME280;10734;44.792;20.482;2022-09-09T12:42:50;99635.22;;;34.01;52.56
21153;BME280;10734;44.792;20.482;2022-09-09T12:45:18;99637.75;;;34.34;52.90
21153;BME280;10734;44.792;20.482;2022-09-09T12:47:58;99638.53;;;34.26;52.85
21153;BME280;10734;44.792;20.482;2022-09-09T12:50:36;99638.03;;;34.55;52.11
21153;BME280;10734;44.792;20.482;2022-09-09T12:53:07;99622.97;;;35.05;51.14
21153;BME280;10734;44.792;20.482;2022-09-09T12:55:36;99620.00;;;35.10;51.43
21153;BME280;10734;44.792;20.482;2022-09-09T12:58:04;99615.81;;;35.56;50.31
21153;BME280;10734;44.792;20.482;2022-09-09T13:00:33;99618.41;;;36.14;48.99
21153;BME280;10734;44.792;20.482;2022-09-09T13:03:01;99622.69;;;36.67;47.48
21153;BME280;10734;44.792;20.482;2022-09-09T13:05:28;99623.50;;;36.77;45.78
21153;BME280;10734;44.792;20.482;2022-09-09T13:08:00;99615.84;;;36.56;45.18
21153;BME280;10734;44.792;20.482;2022-09-09T13:10:29;99618.25;;;36.66;45.53
21153;BME280;10734;44.792;20.482;2022-09-09T13:13:14;99616.94;;;37.02;43.47
21153;BME280;10734;44.792;20.482;2022-09-09T13:15:48;99600.03;;;36.43;45.17
21153;BME280;10734;44.792;20.482;2022-09-09T13:18:15;99606.06;;;36.62;44.45
21153;BME280;10734;44.792;20.482;2022-09-09T13:20:46;99610.22;;;36.56;44.15
21153;BME280;10734;44.792;20.482;2022-09-09T13:23:13;99598.81;;;36.61;44.31
21153;BME280;10734;44.792;20.482;2022-09-09T13:25:41;99602.91;;;37.02;44.28
21153;BME280;10734;44.792;20.482;2022-09-09T13:28:23;99599.50;;;36.58;43.00
21153;BME280;10734;44.792;20.482;2022-09-09T13:30:58;99594.56;;;36.94;42.98
21153;BME280;10734;44.792;20.482;2022-09-09T13:33:33;99597.16;;;36.60;42.91
21153;BME280;10734;44.792;20.482;2022-09-09T13:36:01;99596.28;;;36.21;43.71
21153;BME280;10734;44.792;20.482;2022-09-09T13:38:53;99585.13;;;36.60;42.55
21153;BME280;10734;44.792;20.482;2022-09-09T13:41:22;99592.31;;;36.40;42.86
21153;BME280;10734;44.792;20.482;2022-09-09T13:43:50;99588.28;;;35.32;45.01
21153;BME280;10734;44.792;20.482;2022-09-09T13:46:28;99590.28;;;34.74;47.06
21153;BME280;10734;44.792;20.482;2022-09-09T13:48:57;99588.78;;;35.43;45.73
21153;BME280;10734;44.792;20.482;2022-09-09T13:53:57;99597.00;;;34.33;47.78
21153;BME280;10734;44.792;20.482;2022-09-09T13:56:24;99589.41;;;34.25;48.27
21153;BME280;10734;44.792;20.482;2022-09-09T13:58:50;99582.69;;;34.66;47.22
21153;BME280;10734;44.792;20.482;2022-09-09T14:01:17;99582.78;;;34.52;48.50
21153;BME280;10734;44.792;20.482;2022-09-09T14:03:43;99578.84;;;35.02;46.77
21153;BME280;10734;44.792;20.482;2022-09-09T14:06:10;99573.28;;;35.19;45.70
21153;BME280;10734;44.792;20.482;2022-09-09T14:08:37;99564.38;;;34.51;45.96
21153;BME280;10734;44.792;20.482;2022-09-09T14:11:04;99560.66;;;34.33;46.34
21153;BME280;10734;44.792;20.482;2022-09-09T14:13:31;99567.53;;;33.36;47.16
21153;BME280;10734;44.792;20.482;2022-09-09T14:15:58;99570.09;;;33.46;47.82
21153;BME280;10734;44.792;20.482;2022-09-09T14:18:25;99570.50;;;33.99;46.47
21153;BME280;10734;44.792;20.482;2022-09-09T14:20:51;99558.22;;;32.49;49.42
21153;BME280;10734;44.792;20.482;2022-09-09T14:23:18;99557.31;;;32.06;50.67
21153;BME280;10734;44.792;20.482;2022-09-09T14:25:45;99558.41;;;33.22;48.09
21153;BME280;10734;44.792;20.482;2022-09-09T14:28:13;99555.03;;;33.93;46.58
21153;BME280;10734;44.792;20.482;2022-09-09T14:30:40;99547.88;;;33.78;45.92
21153;BME280;10734;44.792;20.482;2022-09-09T14:33:07;99552.03;;;33.66;45.98
21153;BME280;10734;44.792;20.482;2022-09-09T14:35:35;99550.19;;;32.47;49.48
21153;BME280;10734;44.792;20.482;2022-09-09T14:38:03;99544.50;;;33.44;47.13
21153;BME280;10734;44.792;20.482;2022-09-09T14:40:30;99543.25;;;34.27;45.29
21153;BME280;10734;44.792;20.482;2022-09-09T14:42:57;99547.22;;;33.81;45.59
21153;BME280;10734;44.792;20.482;2022-09-09T14:45:24;99552.03;;;32.52;49.43
21153;BME280;10734;44.792;20.482;2022-09-09T14:47:51;99551.13;;;32.70;48.71
21153;BME280;10734;44.792;20.482;2022-09-09T14:50:18;99554.59;;;33.04;48.09
21153;BME280;10734;44.792;20.482;2022-09-09T14:52:45;99549.84;;;33.77;46.46
21153;BME280;10734;44.792;20.482;2022-09-09T14:55:12;99540.19;;;33.83;46.10
21153;BME280;10734;44.792;20.482;2022-09-09T14:57:39;99534.38;;;33.35;47.41
21153;BME280;10734;44.792;20.482;2022-09-09T15:00:07;99532.06;;;33.50;46.98
21153;BME280;10734;44.792;20.482;2022-09-09T15:02:34;99531.59;;;33.71;46.16
21153;BME280;10734;44.792;20.482;2022-09-09T15:05:00;99532.94;;;33.37;47.36
21153;BME280;10734;44.792;20.482;2022-09-09T15:07:27;99526.88;;;32.57;48.92
21153;BME280;10734;44.792;20.482;2022-09-09T15:09:54;99527.50;;;32.26;49.76
21153;BME280;10734;44.792;20.482;2022-09-09T15:12:21;99526.97;;;32.52;49.82
21153;BME280;10734;44.792;20.482;2022-09-09T15:14:47;99537.38;;;32.88;48.04
21153;BME280;10734;44.792;20.482;2022-09-09T15:17:14;99541.03;;;33.25;48.00
21153;BME280;10734;44.792;20.482;2022-09-09T15:19:40;99531.38;;;33.08;47.65
21153;BME280;10734;44.792;20.482;2022-09-09T15:22:08;99534.53;;;32.65;49.34